Latest Weather Observations for Troughton Island

IDD60801

Issued at 9:31 pm CST Friday 29 July 2016 (issued every 30 minutes, with the page automatically refreshed every 10 minutes)

About weather observations | Map of weather stations | Latest weather observations for NT | Other Formats
Station Details ID: 001007 Name: TROUGHTON ISLAND Lat: -13.75 Lon: 126.15 Height: 6.0 m
Data from the previous 72 hours. | See also: Recent months at Troughton Island
Date/Time
CST
Temp
°C
App
Temp
°C
Dew
Point
°C
Rel
Hum
%
Delta-T
°C
Wind Press
QNH
hPa
Press
MSL
hPa
Rain since
9am
mm
Dir  Spd
km/h
Gust
km/h
Spd
kts
Gust
kts
29/09:30pm 26.9 24.3 17.7 57 5.8 E 28 33 15 18 1014.6 1014.5 0.0
29/09:00pm 26.9 23.1 17.1 55 6.1 ENE 33 39 18 21 1014.3 1014.2 0.0
29/08:30pm 26.8 23.1 17.0 55 6.1 ENE 32 39 17 21 1014.0 1013.9 0.0
29/08:00pm 26.7 22.8 16.9 55 6.1 ENE 33 41 18 22 1013.6 1013.5 0.0
29/07:30pm 26.6 22.9 17.4 57 5.8 ENE 33 41 18 22 1013.3 1013.2 0.0
29/07:00pm 26.7 22.9 17.2 56 5.9 ENE 33 41 18 22 1013.0 1012.9 0.0
29/06:30pm 26.7 23.4 18.0 59 5.5 NE 32 39 17 21 1012.7 1012.6 0.0
29/06:00pm 27.1 23.3 17.3 55 6.1 ENE 33 39 18 21 1012.5 1012.4 0.0
29/05:30pm 27.3 24.4 18.0 56 5.9 ENE 30 37 16 20 1012.5 1012.4 0.0
29/05:00pm 27.6 24.8 18.3 57 5.9 ENE 30 37 16 20 1012.5 1012.4 0.0
29/04:30pm 28.2 24.6 17.1 51 7.0 ENE 32 37 17 20 1012.7 1012.6 0.0
29/04:00pm 28.3 24.7 16.2 47 7.5 ENE 30 37 16 20 1012.7 1012.6 0.0
29/03:30pm 28.3 25.1 16.2 47 7.5 ENE 28 35 15 19 1012.8 1012.7 0.0
29/03:00pm 28.4 25.6 17.3 51 7.0 ENE 28 33 15 18 1013.2 1013.1 0.0
29/02:30pm 29.0 27.0 15.5 44 8.3 ENE 20 28 11 15 1013.4 1013.3 0.0
29/02:00pm 30.4 27.2 11.9 32 10.8 E 20 24 11 13 1013.8 1013.7 0.0
29/01:30pm 29.5 25.3 11.1 32 10.6 ESE 24 30 13 16 1014.1 1014.0 0.0
29/01:00pm 29.6 25.3 12.1 34 10.2 ESE 26 32 14 17 1014.6 1014.5 0.0
29/12:30pm 28.8 22.9 10.5 32 10.4 ESE 32 37 17 20 1014.9 1014.8 0.0
29/12:00pm 28.6 23.4 12.9 38 9.2 ESE 32 37 17 20 1015.2 1015.1 0.0
29/11:30am 27.6 20.7 10.3 34 9.7 ESE 37 43 20 23 1015.6 1015.5 0.0
29/11:00am 27.4 20.3 11.0 36 9.3 ESE 39 46 21 25 1015.8 1015.7 0.0
29/10:30am 27.0 19.8 10.7 36 9.2 ESE 39 48 21 26 1015.8 1015.7 0.0
29/10:00am 26.9 19.2 10.2 35 9.3 ESE 41 48 22 26 1016.0 1015.9 0.0
29/09:30am 26.6 18.8 9.9 35 9.3 ESE 41 48 22 26 1015.8 1015.7 0.0
29/09:00am 26.1 19.6 11.8 41 8.2 ESE 37 46 20 25 1015.8 1015.7 0.0
29/08:30am 25.8 19.5 11.2 40 8.2 ESE 35 43 19 23 1015.6 1015.5 0.0
29/08:00am 25.1 19.5 12.0 44 7.5 ESE 33 39 18 21 1015.4 1015.3 0.0
29/07:30am 24.8 18.6 9.5 38 8.3 SE 32 35 17 19 1015.2 1015.1 0.0
29/07:00am 25.0 19.0 10.1 39 8.2 SE 32 37 17 20 1014.9 1014.8 0.0
29/06:30am 24.8 20.0 11.7 44 7.4 SE 28 32 15 17 1014.8 1014.7 0.0
29/06:00am 25.1 20.4 12.0 44 7.5 SE 28 33 15 18 1014.6 1014.5 0.0
29/05:30am 25.1 20.5 12.3 45 7.3 ESE 28 33 15 18 1014.5 1014.4 0.0
29/05:00am 25.2 20.2 12.1 44 7.5 SE 30 33 16 18 1014.5 1014.4 0.0
29/04:30am 25.4 20.7 11.9 43 7.7 ESE 28 33 15 18 1014.6 1014.5 0.0
29/04:00am 25.4 20.3 11.9 43 7.7 ESE 30 35 16 19 1014.7 1014.6 0.0
29/03:30am 25.4 21.0 14.2 50 6.6 ESE 30 37 16 20 1014.8 1014.7 0.0
29/03:00am 25.7 20.6 11.8 42 7.9 ESE 30 37 16 20 1015.1 1015.0 0.0
29/02:30am 25.8 20.5 11.2 40 8.2 ESE 30 35 16 19 1015.4 1015.3 0.0
29/02:00am 25.7 22.0 13.9 48 7.0 ESE 26 32 14 17 1015.5 1015.4 0.0
29/01:30am 25.7 21.9 13.5 46 7.2 ESE 26 32 14 17 1015.5 1015.4 0.0
29/01:00am 25.9 22.8 14.4 49 6.9 E 24 30 13 16 1015.6 1015.5 0.0
29/12:30am 26.0 22.1 14.5 49 6.9 E 28 33 15 18 1015.6 1015.5 0.0
29/12:00am 25.9 23.2 16.7 57 5.7 E 26 30 14 16 1015.7 1015.6 0.0
 
Date/Time
CST
Temp
°C
App
Temp
°C
Dew
Point
°C
Rel
Hum
%
Delta-T
°C
Wind Press
QNH
hPa
Press
MSL
hPa
Rain since
9am
mm
Dir  Spd
km/h
Gust
km/h
Spd
kts
Gust
kts
28/11:30pm 25.9 23.9 17.5 59 5.3 E 24 30 13 16 1015.8 1015.7 0.0
28/11:00pm 25.8 23.6 16.9 58 5.5 E 24 28 13 15 1015.7 1015.6 0.0
28/10:30pm 25.9 23.5 16.5 56 5.8 E 24 30 13 16 1015.8 1015.7 0.0
28/10:00pm 26.1 24.0 18.0 61 5.1 E 26 30 14 16 1015.6 1015.5 0.0
28/09:30pm 26.0 23.8 17.9 61 5.1 ENE 26 30 14 16 1015.5 1015.4 0.0
28/09:00pm 26.3 23.1 16.3 54 6.2 ENE 28 32 15 17 1015.3 1015.2 0.0
28/08:30pm 26.2 22.2 15.3 51 6.6 ENE 30 35 16 19 1014.9 1014.8 0.0
28/08:00pm 26.2 22.0 16.2 54 6.1 ENE 33 39 18 21 1014.5 1014.4 0.0
28/07:30pm 26.1 21.8 15.8 53 6.3 ENE 33 41 18 22 1014.2 1014.1 0.0
28/07:00pm 25.9 22.2 17.0 58 5.5 ENE 32 41 17 22 1013.9 1013.8 0.0
28/06:30pm 26.0 21.5 16.3 55 6.0 ENE 35 43 19 23 1013.7 1013.6 0.0
28/06:00pm 26.3 21.8 15.4 51 6.6 ENE 33 39 18 21 1013.7 1013.6 0.0
28/05:30pm 26.5 22.2 15.8 51 6.5 ENE 33 41 18 22 1013.7 1013.6 0.0
28/05:00pm 26.8 22.2 15.2 49 7.0 ENE 33 39 18 21 1013.6 1013.5 0.0
28/04:30pm 27.0 22.5 15.4 49 7.1 ENE 33 39 18 21 1013.5 1013.4 0.0
28/04:00pm 27.3 22.7 15.0 47 7.4 ENE 33 41 18 22 1013.5 1013.4 0.0
28/03:30pm 27.7 23.5 16.3 49 7.1 ENE 33 39 18 21 1013.6 1013.5 0.0
28/03:00pm 27.4 22.2 14.4 45 7.8 ENE 35 41 19 22 1013.9 1013.8 0.0
28/02:30pm 28.0 23.8 16.3 49 7.2 ENE 33 39 18 21 1014.2 1014.1 0.0
28/02:00pm 28.0 23.3 13.1 39 8.8 E 30 37 16 20 1014.8 1014.7 0.0
28/01:30pm 28.1 21.7 9.4 31 10.4 E 33 41 18 22 1015.3 1015.2 0.0
28/01:00pm 28.4 22.1 9.6 31 10.5 E 33 43 18 23 1015.7 1015.6 0.0
28/12:30pm 28.4 21.2 9.2 30 10.6 ESE 37 44 20 24 1016.2 1016.1 0.0
28/12:00pm 28.0 21.5 10.2 33 10.0 ESE 35 43 19 23 1016.6 1016.5 0.0
28/11:30am 26.9 19.2 8.8 32 9.9 ESE 39 46 21 25 1016.9 1016.8 0.0
28/11:00am 26.5 19.7 10.6 37 8.9 E 37 48 20 26 1017.3 1017.2 0.0
28/10:30am 26.1 17.7 9.0 34 9.3 ESE 43 54 23 29 1017.4 1017.3 0.0
28/10:00am 26.0 16.5 8.5 33 9.5 ESE 48 56 26 30 1017.5 1017.4 0.0
28/09:30am 26.0 17.3 9.8 36 8.9 ESE 46 56 25 30 1017.5 1017.4 0.0
28/09:00am 25.7 16.3 8.7 34 9.2 ESE 48 57 26 31 1017.3 1017.2 0.0
28/08:30am 25.5 16.5 8.9 35 9.0 ESE 46 57 25 31 1017.0 1016.9 0.0
28/08:00am 25.3 16.4 9.2 36 8.8 ESE 46 56 25 30 1016.7 1016.6 0.0
28/07:30am 25.5 16.5 10.1 38 8.5 ESE 48 57 26 31 1016.2 1016.1 0.0
28/07:00am 25.5 17.0 10.5 39 8.4 ESE 46 54 25 29 1015.8 1015.7 0.0
28/06:30am 25.7 17.8 11.5 41 8.1 ESE 44 54 24 29 1015.4 1015.3 0.0
28/06:00am 25.8 17.8 11.2 40 8.2 ESE 44 54 24 29 1015.2 1015.1 0.0
28/05:30am 25.9 19.5 13.1 45 7.5 ESE 39 50 21 27 1015.3 1015.2 0.0
28/05:00am 26.1 19.3 11.8 41 8.2 ESE 39 48 21 26 1015.1 1015.0 0.0
28/04:30am 26.2 19.2 13.7 46 7.4 ESE 43 52 23 28 1015.0 1014.9 0.0
28/04:00am 26.2 20.3 12.3 42 8.0 ESE 35 41 19 22 1014.9 1014.8 0.0
28/03:30am 25.9 22.2 12.7 44 7.6 SE 24 30 13 16 1015.0 1014.9 0.0
28/03:00am 25.7 22.9 14.2 49 6.8 SE 22 26 12 14 1014.9 1014.8 0.0
28/02:30am 26.1 22.9 14.2 48 7.1 ESE 24 30 13 16 1015.1 1015.0 0.0
28/02:00am 26.3 23.6 14.7 48 7.0 ESE 22 26 12 14 1015.3 1015.2 0.0
28/01:30am 26.1 24.2 16.6 55 5.9 ESE 22 24 12 13 1015.4 1015.3 0.0
28/01:00am 26.3 23.9 16.3 54 6.2 ESE 24 26 13 14 1015.4 1015.3 0.0
28/12:30am 26.2 23.3 16.2 54 6.1 ESE 26 30 14 16 1015.3 1015.2 0.0
28/12:00am 26.1 24.5 17.5 59 5.4 ESE 22 28 12 15 1015.3 1015.2 0.0
 
Date/Time
CST
Temp
°C
App
Temp
°C
Dew
Point
°C
Rel
Hum
%
Delta-T
°C
Wind Press
QNH
hPa
Press
MSL
hPa
Rain since
9am
mm
Dir  Spd
km/h
Gust
km/h
Spd
kts
Gust
kts
27/11:30pm 26.4 23.6 16.3 53 6.2 E 26 32 14 17 1015.5 1015.4 0.0
27/11:00pm 26.5 23.9 17.8 58 5.5 E 28 32 15 17 1015.4 1015.3 0.0
27/10:30pm 26.9 24.7 18.7 60 5.2 E 28 33 15 18 1015.4 1015.3 0.0
27/10:00pm 26.7 23.7 18.6 61 5.2 ENE 32 41 17 22 1015.3 1015.2 0.0
27/09:30pm 26.6 22.5 17.4 57 5.8 ENE 35 43 19 23 1015.2 1015.1 0.0
27/09:00pm 26.8 23.3 17.8 57 5.7 ENE 33 43 18 23 1014.8 1014.7 0.0
27/08:30pm 26.9 22.6 17.9 57 5.7 ENE 37 46 20 25 1014.3 1014.2 0.0
27/08:00pm 26.8 23.2 18.6 60 5.2 ENE 35 46 19 25 1013.8 1013.7 0.0
27/07:30pm 26.9 22.6 17.9 57 5.7 ENE 37 46 20 25 1013.6 1013.5 0.0
27/07:00pm 26.7 22.8 17.8 58 5.6 ENE 35 44 19 24 1013.4 1013.3 0.0
27/06:30pm 26.8 23.2 19.4 64 4.8 ENE 37 46 20 25 1013.2 1013.1 0.0
27/06:00pm 27.1 23.3 18.9 61 5.3 ENE 37 46 20 25 1012.9 1012.8 0.0
27/05:30pm 27.7 24.0 18.4 57 5.9 ENE 35 44 19 24 1012.7 1012.6 0.0
27/05:00pm 28.1 24.7 19.1 58 5.8 ENE 35 44 19 24 1012.6 1012.5 0.0
27/04:30pm 28.1 24.6 18.8 57 6.0 ENE 35 43 19 23 1012.4 1012.3 0.0
27/04:00pm 28.2 24.2 18.6 56 6.2 ENE 37 43 20 23 1012.4 1012.3 0.0
27/03:30pm 28.5 24.5 19.4 57 5.9 ENE 39 48 21 26 1012.5 1012.4 0.0
27/03:00pm 28.4 24.3 19.9 60 5.6 ENE 41 50 22 27 1012.6 1012.5 0.0
27/02:30pm 28.6 24.1 19.0 56 6.2 ENE 41 48 22 26 1012.9 1012.8 0.0
27/02:00pm 29.0 25.5 18.7 53 6.6 ENE 35 46 19 25 1013.2 1013.1 0.0
27/01:30pm 29.6 26.2 17.8 49 7.5 ENE 32 41 17 22 1013.8 1013.7 0.0
27/01:00pm 31.2 27.5 16.0 40 9.5 E 30 37 16 20 1014.1 1014.0 0.0
27/12:30pm 30.4 28.1 18.5 49 7.7 ESE 28 37 15 20 1014.6 1014.5 0.0
27/12:00pm 29.2 25.1 16.4 46 8.0 E 33 41 18 22 1015.1 1015.0 0.0
27/11:30am 28.2 23.4 15.5 46 7.8 E 35 44 19 24 1015.5 1015.4 0.0
27/11:00am 27.9 23.7 16.2 49 7.2 ESE 33 41 18 22 1015.7 1015.6 0.0
27/10:30am 27.8 22.5 14.1 43 8.2 ESE 35 44 19 24 1015.8 1015.7 0.0
27/10:00am 27.7 23.3 16.6 50 6.9 ESE 35 43 19 23 1015.8 1015.7 0.0
27/09:30am 26.6 26.6 20.9 71 3.8 SSE 22 28 12 15 1015.6 1015.5 0.0
27/09:00am 26.1 26.0 20.7 72 3.5 SE 22 28 12 15 1015.4 1015.3 0.0
27/08:30am 25.6 26.5 21.5 78 2.7 SE 19 22 10 12 1015.2 1015.1 0.0
27/08:00am 24.6 25.2 21.1 81 2.3 SE 19 20 10 11 1014.8 1014.7 0.0
27/07:30am 24.3 25.5 22.2 88 1.4 SSE 19 22 10 12 1014.5 1014.4 0.0
27/07:00am 24.5 26.8 22.8 90 1.1 SSE 15 17 8 9 1014.1 1014.0 0.0
27/06:30am 24.5 26.7 22.6 89 1.3 SSE 15 17 8 9 1013.7 1013.6 0.0
27/06:00am 24.7 27.1 22.9 90 1.2 SSE 15 17 8 9 1013.5 1013.4 0.0
27/05:30am 24.9 28.1 23.1 90 1.2 S 11 13 6 7 1013.5 1013.4 0.0
27/05:00am 24.9 28.3 23.3 91 1.1 S 11 15 6 8 1013.3 1013.2 0.0
27/04:30am 24.9 27.9 23.3 91 1.1 S 13 15 7 8 1013.0 1012.9 0.0
27/04:00am 24.6 27.9 22.5 88 1.4 S 9 9 5 5 1013.0 1012.9 0.0
27/03:30am 24.6 28.4 22.7 89 1.3 S 7 9 4 5 1013.2 1013.1 0.0
27/03:00am 24.4 28.0 22.3 88 1.4 S 7 9 4 5 1013.4 1013.3 0.0
27/02:30am 24.3 27.8 21.8 86 1.7 E 6 7 3 4 1013.5 1013.4 0.0
27/02:00am 25.3 29.1 22.8 86 1.7 E 7 7 4 4 1013.7 1013.6 0.0
27/01:30am 25.4 29.3 22.9 86 1.7 ENE 7 9 4 5 1013.8 1013.7 0.0
27/01:00am 25.3 29.0 22.6 85 1.8 NE 7 11 4 6 1013.9 1013.8 0.0
27/12:30am 25.8 28.9 22.9 84 2.0 NE 11 13 6 7 1014.0 1013.9 0.0
27/12:00am 25.9 28.2 22.8 83 2.1 NE 15 17 8 9 1014.1 1014.0 0.0
 
Date/Time
CST
Temp
°C
App
Temp
°C
Dew
Point
°C
Rel
Hum
%
Delta-T
°C
Wind Press
QNH
hPa
Press
MSL
hPa
Rain since
9am
mm
Dir  Spd
km/h
Gust
km/h
Spd
kts
Gust
kts
26/11:30pm 25.9 28.4 23.2 85 1.8 ENE 15 17 8 9 1014.2 1014.1 0.0

Other Formats:

Comma delimited format used in spreadsheet applications
http://www.bom.gov.au/fwo/IDD60801/IDD60801.94102.axf

JavaScript Object Notation format (JSON) in row-major order
http://www.bom.gov.au/fwo/IDD60801/IDD60801.94102.json